sensor_id;sensor_type;location;lat;lon;timestamp;pressure;altitude;pressure_sealevel;temperature;humidity
74370;BME280;71062;44.520;11.342;2023-07-20T17:03:41;100229.56;;;32.93;50.37
74370;BME280;71062;44.520;11.342;2023-07-20T17:06:07;100219.81;;;32.80;50.70
74370;BME280;71062;44.520;11.342;2023-07-20T17:08:33;100243.72;;;32.91;51.10
74370;BME280;71062;44.520;11.342;2023-07-20T17:11:02;100222.78;;;32.76;51.15
74370;BME280;71062;44.520;11.342;2023-07-20T17:13:29;100247.78;;;32.97;53.07
74370;BME280;71062;44.520;11.342;2023-07-20T17:15:55;100250.81;;;32.90;54.33
74370;BME280;71062;44.520;11.342;2023-07-20T17:18:21;100250.94;;;32.83;54.79
74370;BME280;71062;44.520;11.342;2023-07-20T17:20:47;100253.47;;;32.81;55.14
74370;BME280;71062;44.520;11.342;2023-07-20T17:23:17;100246.59;;;32.71;56.45
74370;BME280;71062;44.520;11.342;2023-07-20T17:25:44;100229.31;;;32.61;57.06
74370;BME280;71062;44.520;11.342;2023-07-20T17:28:10;100249.41;;;32.52;57.71
74370;BME280;71062;44.520;11.342;2023-07-20T17:30:36;100240.69;;;32.52;58.11
74370;BME280;71062;44.520;11.342;2023-07-20T17:33:02;100241.53;;;32.49;57.72
74370;BME280;71062;44.520;11.342;2023-07-20T17:35:28;100235.44;;;32.40;57.86
74370;BME280;71062;44.520;11.342;2023-07-20T17:37:54;100240.44;;;32.39;57.91
74370;BME280;71062;44.520;11.342;2023-07-20T17:40:20;100239.09;;;32.21;58.23
74370;BME280;71062;44.520;11.342;2023-07-20T17:42:46;100230.19;;;32.05;58.99
74370;BME280;71062;44.520;11.342;2023-07-20T17:45:15;100240.06;;;32.11;59.02
74370;BME280;71062;44.520;11.342;2023-07-20T17:47:41;100226.22;;;31.92;59.68
74370;BME280;71062;44.520;11.342;2023-07-20T17:50:07;100237.84;;;31.92;59.70
74370;BME280;71062;44.520;11.342;2023-07-20T17:52:36;100224.38;;;32.05;59.13
74370;BME280;71062;44.520;11.342;2023-07-20T17:55:02;100232.72;;;32.03;58.94
74370;BME280;71062;44.520;11.342;2023-07-20T17:57:27;100249.03;;;31.93;59.71
74370;BME280;71062;44.520;11.342;2023-07-20T17:59:53;100236.91;;;31.98;59.24
74370;BME280;71062;44.520;11.342;2023-07-20T18:02:19;100241.63;;;31.89;59.79
74370;BME280;71062;44.520;11.342;2023-07-20T18:04:45;100239.59;;;31.86;59.92
74370;BME280;71062;44.520;11.342;2023-07-20T18:07:11;100252.94;;;31.80;60.38
74370;BME280;71062;44.520;11.342;2023-07-20T18:09:36;100253.34;;;31.82;60.57
74370;BME280;71062;44.520;11.342;2023-07-20T18:12:02;100244.81;;;31.67;60.91
74370;BME280;71062;44.520;11.342;2023-07-20T18:14:28;100248.69;;;31.57;61.17
74370;BME280;71062;44.520;11.342;2023-07-20T18:16:54;100243.25;;;31.59;61.27
74370;BME280;71062;44.520;11.342;2023-07-20T18:19:20;100238.34;;;31.53;61.63
74370;BME280;71062;44.520;11.342;2023-07-20T18:21:46;100240.84;;;31.51;61.65
74370;BME280;71062;44.520;11.342;2023-07-20T18:24:11;100244.28;;;31.42;62.02
74370;BME280;71062;44.520;11.342;2023-07-20T18:26:37;100246.13;;;31.26;62.70
74370;BME280;71062;44.520;11.342;2023-07-20T18:29:03;100230.44;;;31.20;63.30
74370;BME280;71062;44.520;11.342;2023-07-20T18:31:29;100242.47;;;31.18;63.31
74370;BME280;71062;44.520;11.342;2023-07-20T18:33:54;100235.59;;;31.05;63.76
74370;BME280;71062;44.520;11.342;2023-07-20T18:36:20;100238.09;;;31.03;64.12
74370;BME280;71062;44.520;11.342;2023-07-20T18:38:47;100229.81;;;31.02;64.31
74370;BME280;71062;44.520;11.342;2023-07-20T18:41:13;100230.78;;;30.88;64.78
74370;BME280;71062;44.520;11.342;2023-07-20T18:43:38;100235.84;;;30.77;65.06
74370;BME280;71062;44.520;11.342;2023-07-20T18:46:04;100235.06;;;30.73;65.58
74370;BME280;71062;44.520;11.342;2023-07-20T18:48:30;100242.56;;;30.67;65.96
